Time;durP1;ratioP1;P1;durP2;ratioP2;P2;SDS_P1;SDS_P2;PMS_P1;PMS_P2;Temp;Humidity;BMP_temperature;BMP_pressure;BME280_temperature;BME280_humidity;BME280_pressure;Samples;Min_cycle;Max_cycle;Signal;HPM_P1;HPM_P2
2022/01/19 00:00:38;;;;;;;0.90;0.32;;;;;;;;;;5053966;28;20053;-65
2022/01/19 00:03:04;;;;;;;0.70;0.30;;;;;;;;;;5053292;28;20024;-66
2022/01/19 00:05:29;;;;;;;0.20;0.20;;;;;;;;;;5053196;28;20620;-65
2022/01/19 00:07:54;;;;;;;0.98;0.40;;;;;;;;;;5053532;28;20512;-66
2022/01/19 00:10:26;;;;;;;0.30;0.30;;;;;;;;;;5053370;28;20017;-65
2022/01/19 00:12:52;;;;;;;1.13;0.22;;;;;;;;;;5053490;28;20269;-64
2022/01/19 00:15:17;;;;;;;1.17;0.50;;;;;;;;;;5052996;28;20460;-64
2022/01/19 00:17:43;;;;;;;0.60;0.35;;;;;;;;;;5052109;28;20122;-65
2022/01/19 00:20:08;;;;;;;0.55;0.28;;;;;;;;;;5053242;28;20032;-65
2022/01/19 00:22:33;;;;;;;1.42;0.80;;;;;;;;;;5053188;28;20083;-64
2022/01/19 00:24:58;;;;;;;0.80;0.43;;;;;;;;;;5051804;28;20024;-64
2022/01/19 00:27:24;;;;;;;0.52;0.30;;;;;;;;;;5052736;28;20035;-65
2022/01/19 00:29:49;;;;;;;1.00;0.33;;;;;;;;;;5052871;28;20025;-64
2022/01/19 00:32:14;;;;;;;0.40;0.20;;;;;;;;;;5052924;28;20246;-64
2022/01/19 00:34:39;;;;;;;0.80;0.55;;;;;;;;;;5053030;28;20461;-64
2022/01/19 00:37:04;;;;;;;0.75;0.38;;;;;;;;;;5052687;28;20043;-64
2022/01/19 00:39:32;;;;;;;0.87;0.20;;;;;;;;;;5053125;28;20044;-65
2022/01/19 00:41:58;;;;;;;0.32;0.30;;;;;;;;;;5052795;28;20487;-64
2022/01/19 00:44:23;;;;;;;1.05;0.30;;;;;;;;;;5052651;28;20025;-64
2022/01/19 00:46:48;;;;;;;1.33;0.40;;;;;;;;;;5052907;28;20354;-64
2022/01/19 00:49:14;;;;;;;1.05;0.32;;;;;;;;;;5052238;28;20057;-64
2022/01/19 00:51:39;;;;;;;0.73;0.30;;;;;;;;;;5053047;28;20013;-64
2022/01/19 00:54:04;;;;;;;0.47;0.40;;;;;;;;;;5052612;28;20033;-64
2022/01/19 00:56:29;;;;;;;0.65;0.60;;;;;;;;;;5052594;28;20029;-64
2022/01/19 00:58:54;;;;;;;0.50;0.40;;;;;;;;;;5052553;28;20044;-65
2022/01/19 01:01:20;;;;;;;0.52;0.47;;;;;;;;;;5052145;28;20032;-65
2022/01/19 01:03:45;;;;;;;0.83;0.50;;;;;;;;;;5052574;28;20021;-65
2022/01/19 01:06:10;;;;;;;0.80;0.40;;;;;;;;;;5052065;28;20428;-65
2022/01/19 01:08:35;;;;;;;0.50;0.40;;;;;;;;;;5052422;28;20264;-65
2022/01/19 01:11:00;;;;;;;0.85;0.40;;;;;;;;;;5052812;28;20482;-65
2022/01/19 01:15:24;;;;;;;1.30;0.55;;;;;;;;;;5052063;28;20043;-64
2022/01/19 01:16:29;;;;;;;0.98;0.30;;;;;;;;;;5052004;28;20291;-64
2022/01/19 01:18:54;;;;;;;1.17;0.60;;;;;;;;;;5052280;28;20021;-64
2022/01/19 01:21:19;;;;;;;0.93;0.60;;;;;;;;;;5051858;28;20527;-64
2022/01/19 01:23:45;;;;;;;0.98;0.45;;;;;;;;;;5052283;28;20067;-65
2022/01/19 01:26:10;;;;;;;0.93;0.50;;;;;;;;;;5052032;28;20024;-64
2022/01/19 01:28:35;;;;;;;0.63;0.43;;;;;;;;;;5052261;28;20017;-65
2022/01/19 01:31:00;;;;;;;1.33;0.60;;;;;;;;;;5052068;28;20017;-65
2022/01/19 01:33:26;;;;;;;0.77;0.40;;;;;;;;;;5052019;28;20070;-66
2022/01/19 01:35:51;;;;;;;0.60;0.40;;;;;;;;;;5052256;28;20062;-64
2022/01/19 01:38:16;;;;;;;1.00;0.50;;;;;;;;;;5051882;28;20253;-65
2022/01/19 01:40:41;;;;;;;0.30;0.30;;;;;;;;;;5051413;28;20017;-64
2022/01/19 01:43:07;;;;;;;0.77;0.60;;;;;;;;;;5051514;28;20035;-65
2022/01/19 01:45:35;;;;;;;0.20;0.20;;;;;;;;;;5052505;28;20013;-65
2022/01/19 01:48:12;;;;;;;0.95;0.65;;;;;;;;;;5052010;28;20013;-64
2022/01/19 01:53:26;;;;;;;0.70;0.47;;;;;;;;;;5051774;28;20032;-65
2022/01/19 01:55:55;;;;;;;0.30;0.30;;;;;;;;;;5051996;28;20025;-64
2022/01/19 01:58:20;;;;;;;0.40;0.35;;;;;;;;;;5051715;28;20028;-64
2022/01/19 02:00:46;;;;;;;0.77;0.40;;;;;;;;;;5051976;28;20388;-65
2022/01/19 02:03:12;;;;;;;0.40;0.40;;;;;;;;;;5051097;28;20040;-64
2022/01/19 02:05:46;;;;;;;1.02;0.40;;;;;;;;;;5059357;23;20049;-64
2022/01/19 02:08:20;;;;;;;0.75;0.45;;;;;;;;;;5051649;28;20032;-64
2022/01/19 02:16:25;;;;;;;0.73;0.30;;;;;;;;;;5051659;28;20104;-64
2022/01/19 02:21:58;;;;;;;1.17;0.43;;;;;;;;;;5051640;28;20028;-64
2022/01/19 02:24:28;;;;;;;0.43;0.30;;;;;;;;;;5051700;28;20501;-65
2022/01/19 02:27:08;;;;;;;0.57;0.50;;;;;;;;;;5051821;28;20040;-64
2022/01/19 02:40:15;;;;;;;0.40;0.30;;;;;;;;;;5051636;28;20116;-64
2022/01/19 02:50:35;;;;;;;0.60;0.40;;;;;;;;;;5051399;28;20244;-66
2022/01/19 02:53:00;;;;;;;1.73;0.40;;;;;;;;;;5053429;28;20384;-64
2022/01/19 02:55:25;;;;;;;0.60;0.40;;;;;;;;;;5054231;28;20461;-65
2022/01/19 02:57:51;;;;;;;0.43;0.25;;;;;;;;;;5054973;28;20087;-65
2022/01/19 03:08:55;;;;;;;0.47;0.40;;;;;;;;;;4973814;28;20450;-65
2022/01/19 03:11:20;;;;;;;0.70;0.30;;;;;;;;;;4973039;28;20463;-65
2022/01/19 03:13:46;;;;;;;0.55;0.30;;;;;;;;;;4973411;28;20045;-65
2022/01/19 03:16:12;;;;;;;0.40;0.20;;;;;;;;;;4973280;28;20033;-64
2022/01/19 03:18:37;;;;;;;0.28;0.25;;;;;;;;;;4973426;28;20027;-64
2022/01/19 03:21:03;;;;;;;0.82;0.43;;;;;;;;;;4973088;28;20035;-64
2022/01/19 03:23:28;;;;;;;0.50;0.30;;;;;;;;;;4972940;28;20026;-64
2022/01/19 03:25:54;;;;;;;1.52;0.20;;;;;;;;;;4973311;28;20081;-65
2022/01/19 03:28:19;;;;;;;0.20;0.20;;;;;;;;;;4973040;28;20033;-64
2022/01/19 03:30:45;;;;;;;0.82;0.38;;;;;;;;;;4973211;28;20023;-64
2022/01/19 03:33:11;;;;;;;0.63;0.28;;;;;;;;;;4972662;28;20126;-64
2022/01/19 03:35:38;;;;;;;0.80;0.20;;;;;;;;;;4973062;28;20113;-65
2022/01/19 03:38:03;;;;;;;0.43;0.20;;;;;;;;;;4972971;28;20027;-64
2022/01/19 03:40:28;;;;;;;0.55;0.45;;;;;;;;;;5033390;28;20033;-65
2022/01/19 03:42:54;;;;;;;0.98;0.40;;;;;;;;;;5053870;28;20056;-64
2022/01/19 03:45:19;;;;;;;0.67;0.23;;;;;;;;;;5053660;28;20059;-64
2022/01/19 03:47:51;;;;;;;1.25;0.50;;;;;;;;;;5054024;28;20248;-65
2022/01/19 03:50:17;;;;;;;0.32;0.28;;;;;;;;;;5053736;28;20016;-64
2022/01/19 03:52:42;;;;;;;0.50;0.40;;;;;;;;;;5053940;28;20031;-65
2022/01/19 03:55:08;;;;;;;1.10;0.32;;;;;;;;;;5053488;28;20025;-64
2022/01/19 03:57:33;;;;;;;0.98;0.40;;;;;;;;;;5053646;28;20025;-65
2022/01/19 03:59:58;;;;;;;0.40;0.40;;;;;;;;;;5053792;28;20154;-64
2022/01/19 04:02:24;;;;;;;0.73;0.63;;;;;;;;;;5053516;28;20708;-64
2022/01/19 04:04:57;;;;;;;0.38;0.35;;;;;;;;;;5052761;28;20548;-64
2022/01/19 04:07:23;;;;;;;0.38;0.30;;;;;;;;;;5053237;28;20671;-64
2022/01/19 04:09:48;;;;;;;1.15;0.50;;;;;;;;;;5053620;28;20021;-65
2022/01/19 04:12:18;;;;;;;1.33;0.50;;;;;;;;;;5053337;28;20016;-64
2022/01/19 04:14:44;;;;;;;0.20;0.20;;;;;;;;;;5053456;28;20337;-64
2022/01/19 04:17:11;;;;;;;0.40;0.40;;;;;;;;;;5053001;28;20576;-64
2022/01/19 04:22:05;;;;;;;0.82;0.30;;;;;;;;;;5053513;28;20448;-65
2022/01/19 04:24:30;;;;;;;0.80;0.38;;;;;;;;;;5053160;28;20024;-64
2022/01/19 04:29:40;;;;;;;0.15;0.15;;;;;;;;;;5053280;28;20419;-64
2022/01/19 04:32:11;;;;;;;1.25;0.30;;;;;;;;;;5053020;28;20013;-65
2022/01/19 04:34:38;;;;;;;0.80;0.50;;;;;;;;;;5053099;28;20013;-64
2022/01/19 04:37:28;;;;;;;0.95;0.20;;;;;;;;;;5052824;28;20021;-65
2022/01/19 04:45:52;;;;;;;0.38;0.20;;;;;;;;;;5052482;28;20032;-64
2022/01/19 05:04:47;;;;;;;1.55;0.50;;;;;;;;;;4990503;28;20089;-64
2022/01/19 05:07:21;;;;;;;0.32;0.20;;;;;;;;;;4990361;28;20041;-64
2022/01/19 05:15:03;;;;;;;0.30;0.20;;;;;;;;;;4990215;28;20037;-64
2022/01/19 05:17:29;;;;;;;1.48;0.30;;;;;;;;;;4989995;28;20256;-65
2022/01/19 05:19:54;;;;;;;0.75;0.38;;;;;;;;;;4990733;28;20054;-65
2022/01/19 05:22:19;;;;;;;0.43;0.30;;;;;;;;;;4990423;28;20113;-64
2022/01/19 05:24:46;;;;;;;1.20;0.27;;;;;;;;;;4990644;28;20727;-64
2022/01/19 05:27:11;;;;;;;1.00;0.40;;;;;;;;;;4990048;28;20031;-64
2022/01/19 05:29:36;;;;;;;0.50;0.20;;;;;;;;;;4990557;28;20037;-64
2022/01/19 05:32:01;;;;;;;0.20;0.20;;;;;;;;;;4990466;28;20552;-65
2022/01/19 05:34:26;;;;;;;1.77;0.30;;;;;;;;;;4990311;28;20486;-64
2022/01/19 05:36:51;;;;;;;0.50;0.40;;;;;;;;;;4990517;28;20026;-65
2022/01/19 05:39:17;;;;;;;0.88;0.43;;;;;;;;;;4989972;28;20030;-65
2022/01/19 05:41:42;;;;;;;0.33;0.33;;;;;;;;;;5029518;28;20460;-65
2022/01/19 05:44:07;;;;;;;0.60;0.20;;;;;;;;;;5051824;28;20032;-65
2022/01/19 05:46:34;;;;;;;1.65;0.47;;;;;;;;;;5051990;28;20025;-64
2022/01/19 05:48:59;;;;;;;1.08;0.30;;;;;;;;;;5051978;28;20021;-66
2022/01/19 05:51:25;;;;;;;0.63;0.30;;;;;;;;;;5051902;28;20013;-65
2022/01/19 05:53:50;;;;;;;0.77;0.23;;;;;;;;;;5052028;28;20601;-65
2022/01/19 05:56:15;;;;;;;0.43;0.33;;;;;;;;;;5051759;28;20250;-64
2022/01/19 05:58:40;;;;;;;0.37;0.20;;;;;;;;;;5052237;28;20250;-64
2022/01/19 06:01:05;;;;;;;1.00;0.30;;;;;;;;;;5051586;28;20268;-64
2022/01/19 06:03:30;;;;;;;0.80;0.68;;;;;;;;;;5051664;28;20082;-64
2022/01/19 06:05:56;;;;;;;0.63;0.20;;;;;;;;;;5051765;28;20481;-65
2022/01/19 06:10:54;;;;;;;0.50;0.10;;;;;;;;;;5052227;28;20253;-64
2022/01/19 06:13:19;;;;;;;0.45;0.20;;;;;;;;;;5051376;28;20021;-64
2022/01/19 06:15:46;;;;;;;0.45;0.40;;;;;;;;;;5051794;28;20023;-65
2022/01/19 06:18:11;;;;;;;0.82;0.30;;;;;;;;;;5051541;28;20099;-66
2022/01/19 06:20:36;;;;;;;0.55;0.10;;;;;;;;;;5051776;28;20467;-65
2022/01/19 06:23:02;;;;;;;0.50;0.30;;;;;;;;;;5051498;28;20021;-65
2022/01/19 06:25:27;;;;;;;0.57;0.35;;;;;;;;;;5051335;28;20100;-64
2022/01/19 06:27:52;;;;;;;0.80;0.20;;;;;;;;;;5053757;28;20021;-64
2022/01/19 06:30:18;;;;;;;0.47;0.30;;;;;;;;;;5055276;28;20017;-65
2022/01/19 06:32:43;;;;;;;0.77;0.30;;;;;;;;;;5055426;28;20048;-64
2022/01/19 06:35:08;;;;;;;0.52;0.35;;;;;;;;;;5055023;28;20303;-64
2022/01/19 06:37:34;;;;;;;2.08;0.50;;;;;;;;;;5055158;28;20353;-64
2022/01/19 06:40:00;;;;;;;0.77;0.40;;;;;;;;;;5055317;28;20059;-64
2022/01/19 06:42:25;;;;;;;0.75;0.20;;;;;;;;;;5053749;28;20017;-66
2022/01/19 06:44:50;;;;;;;0.20;0.20;;;;;;;;;;5055207;28;20023;-65
2022/01/19 06:47:16;;;;;;;0.87;0.37;;;;;;;;;;5054667;28;20449;-65
2022/01/19 06:49:41;;;;;;;0.77;0.45;;;;;;;;;;5055112;28;20257;-65
2022/01/19 06:52:06;;;;;;;0.33;0.20;;;;;;;;;;5054975;28;20100;-64
2022/01/19 06:54:31;;;;;;;1.20;0.30;;;;;;;;;;5054966;28;20731;-65
2022/01/19 06:56:56;;;;;;;0.47;0.33;;;;;;;;;;5054971;28;20025;-64
2022/01/19 06:59:21;;;;;;;0.40;0.20;;;;;;;;;;5054587;28;20033;-65
2022/01/19 07:01:47;;;;;;;0.87;0.30;;;;;;;;;;5054894;28;20025;-65
2022/01/19 07:04:15;;;;;;;0.20;0.20;;;;;;;;;;5054463;28;20290;-65
2022/01/19 07:06:40;;;;;;;0.43;0.30;;;;;;;;;;5054838;28;20250;-65
2022/01/19 07:09:05;;;;;;;0.30;0.20;;;;;;;;;;5054412;28;20100;-65
2022/01/19 07:11:30;;;;;;;0.63;0.47;;;;;;;;;;5054490;28;20017;-64
2022/01/19 07:13:57;;;;;;;0.30;0.27;;;;;;;;;;5054727;28;20148;-65
2022/01/19 07:16:22;;;;;;;0.25;0.20;;;;;;;;;;5054517;28;20288;-64
2022/01/19 07:18:47;;;;;;;0.90;0.35;;;;;;;;;;5053325;28;20025;-65
2022/01/19 07:21:12;;;;;;;0.83;0.40;;;;;;;;;;5052796;28;20030;-64
2022/01/19 07:23:38;;;;;;;0.30;0.17;;;;;;;;;;5054390;28;20266;-66
2022/01/19 07:26:03;;;;;;;0.50;0.27;;;;;;;;;;5053972;28;20294;-66
2022/01/19 07:28:28;;;;;;;0.50;0.20;;;;;;;;;;5054319;28;20021;-65
2022/01/19 07:30:53;;;;;;;0.28;0.20;;;;;;;;;;5054608;28;20096;-65
2022/01/19 07:33:18;;;;;;;0.43;0.40;;;;;;;;;;5053852;28;20028;-64
2022/01/19 07:35:45;;;;;;;0.22;0.20;;;;;;;;;;5054072;28;20104;-66
2022/01/19 07:38:10;;;;;;;1.02;0.40;;;;;;;;;;5053482;28;20025;-65
2022/01/19 07:40:36;;;;;;;0.73;0.30;;;;;;;;;;5053636;28;20024;-65
2022/01/19 07:43:01;;;;;;;0.90;0.30;;;;;;;;;;5053885;28;20518;-65
2022/01/19 07:45:26;;;;;;;0.30;0.20;;;;;;;;;;5053639;28;20040;-66
2022/01/19 07:47:51;;;;;;;0.57;0.20;;;;;;;;;;5054119;28;20325;-65
2022/01/19 07:50:18;;;;;;;1.07;0.50;;;;;;;;;;5053769;28;20423;-66
2022/01/19 07:52:43;;;;;;;0.57;0.22;;;;;;;;;;5053938;28;20043;-65
2022/01/19 07:55:08;;;;;;;1.10;0.47;;;;;;;;;;5053272;28;20025;-65
2022/01/19 07:57:33;;;;;;;0.52;0.40;;;;;;;;;;5053720;28;20257;-65
2022/01/19 07:59:58;;;;;;;1.98;0.47;;;;;;;;;;5053859;28;20544;-65
2022/01/19 08:02:30;;;;;;;0.37;0.30;;;;;;;;;;5053585;28;20033;-65
2022/01/19 08:04:55;;;;;;;0.95;0.25;;;;;;;;;;5053378;28;20041;-65
2022/01/19 08:07:21;;;;;;;0.80;0.40;;;;;;;;;;5053145;28;20527;-65
2022/01/19 08:09:46;;;;;;;2.05;0.30;;;;;;;;;;5053709;28;20021;-66
2022/01/19 08:12:11;;;;;;;0.52;0.20;;;;;;;;;;5053398;28;20104;-65
2022/01/19 08:14:36;;;;;;;1.90;0.43;;;;;;;;;;5053553;28;20028;-64
2022/01/19 08:17:01;;;;;;;0.57;0.50;;;;;;;;;;5053326;28;20289;-65
2022/01/19 08:19:26;;;;;;;0.30;0.22;;;;;;;;;;5053310;28;20281;-65
2022/01/19 08:21:52;;;;;;;0.50;0.20;;;;;;;;;;5053490;28;20485;-65
2022/01/19 08:24:17;;;;;;;0.17;0.10;;;;;;;;;;5053070;28;20017;-65
2022/01/19 08:26:43;;;;;;;0.40;0.38;;;;;;;;;;5053300;28;20013;-65
2022/01/19 08:29:09;;;;;;;0.68;0.30;;;;;;;;;;5052874;28;20024;-64
2022/01/19 08:31:34;;;;;;;0.82;0.50;;;;;;;;;;5053107;28;20018;-65
2022/01/19 08:33:59;;;;;;;0.45;0.20;;;;;;;;;;5053162;28;20031;-65
2022/01/19 08:36:26;;;;;;;0.20;0.13;;;;;;;;;;5053196;28;20116;-65
2022/01/19 08:38:51;;;;;;;0.60;0.38;;;;;;;;;;5053050;28;20036;-65
2022/01/19 08:41:16;;;;;;;1.27;0.35;;;;;;;;;;5052501;28;20024;-65
2022/01/19 08:43:42;;;;;;;0.77;0.30;;;;;;;;;;5053103;28;20043;-65
2022/01/19 08:46:07;;;;;;;0.63;0.22;;;;;;;;;;5052799;28;20094;-66
2022/01/19 08:48:32;;;;;;;0.57;0.30;;;;;;;;;;5052759;28;20067;-64
2022/01/19 08:50:58;;;;;;;1.40;0.60;;;;;;;;;;5052505;28;20028;-65
2022/01/19 08:53:23;;;;;;;0.38;0.20;;;;;;;;;;5052372;28;20257;-65
2022/01/19 08:55:49;;;;;;;1.00;0.30;;;;;;;;;;5052738;28;20124;-65
2022/01/19 08:58:14;;;;;;;0.43;0.20;;;;;;;;;;5052798;28;20254;-65
2022/01/19 09:00:41;;;;;;;0.38;0.38;;;;;;;;;;5052670;28;20044;-64
2022/01/19 09:03:06;;;;;;;0.82;0.30;;;;;;;;;;5052108;28;20021;-64
2022/01/19 09:05:31;;;;;;;0.37;0.20;;;;;;;;;;5052473;28;20045;-66
2022/01/19 09:07:56;;;;;;;0.50;0.30;;;;;;;;;;5052551;28;20025;-67
2022/01/19 09:10:22;;;;;;;0.32;0.22;;;;;;;;;;5052364;28;20029;-65
2022/01/19 09:12:47;;;;;;;1.40;0.20;;;;;;;;;;5051211;28;20025;-65
2022/01/19 09:15:13;;;;;;;0.20;0.20;;;;;;;;;;5051895;28;20033;-65
2022/01/19 09:17:39;;;;;;;0.65;0.20;;;;;;;;;;5052400;28;20021;-65
2022/01/19 09:20:05;;;;;;;0.20;0.20;;;;;;;;;;5052325;28;20100;-65
2022/01/19 09:22:31;;;;;;;0.25;0.10;;;;;;;;;;5052251;28;20023;-65
2022/01/19 09:24:56;;;;;;;0.20;0.20;;;;;;;;;;5052160;28;20021;-65
2022/01/19 09:27:21;;;;;;;0.38;0.20;;;;;;;;;;5051905;28;20479;-64
2022/01/19 09:29:47;;;;;;;0.32;0.13;;;;;;;;;;5050953;28;20086;-65
2022/01/19 09:32:13;;;;;;;1.25;0.30;;;;;;;;;;5052086;28;20395;-65
2022/01/19 09:34:43;;;;;;;1.08;0.30;;;;;;;;;;5052208;28;20025;-65
2022/01/19 09:37:09;;;;;;;0.63;0.30;;;;;;;;;;5051794;28;20017;-65
2022/01/19 09:39:34;;;;;;;0.52;0.30;;;;;;;;;;5052049;28;20035;-65
2022/01/19 09:41:59;;;;;;;0.30;0.10;;;;;;;;;;5051997;28;20025;-65
2022/01/19 09:44:26;;;;;;;0.77;0.30;;;;;;;;;;5051890;28;20341;-65
2022/01/19 09:46:51;;;;;;;0.65;0.30;;;;;;;;;;5052129;28;20021;-65
2022/01/19 09:49:17;;;;;;;0.40;0.30;;;;;;;;;;5051836;28;20020;-65
2022/01/19 09:51:44;;;;;;;0.35;0.20;;;;;;;;;;5052031;28;20013;-65
2022/01/19 09:54:12;;;;;;;0.50;0.30;;;;;;;;;;5051921;28;20036;-65
2022/01/19 09:56:37;;;;;;;0.38;0.10;;;;;;;;;;5051963;28;20020;-65
2022/01/19 09:59:03;;;;;;;0.10;0.10;;;;;;;;;;5051859;28;20028;-65
2022/01/19 10:01:28;;;;;;;0.30;0.20;;;;;;;;;;5051647;28;20300;-65
2022/01/19 10:03:53;;;;;;;0.43;0.35;;;;;;;;;;5055681;28;20028;-65
2022/01/19 10:06:19;;;;;;;0.20;0.20;;;;;;;;;;5055630;28;20610;-65
2022/01/19 10:08:44;;;;;;;0.50;0.25;;;;;;;;;;5055854;28;20025;-65
2022/01/19 10:11:13;;;;;;;0.80;0.30;;;;;;;;;;5055513;28;20464;-65
2022/01/19 10:16:59;;;;;;;0.75;0.20;;;;;;;;;;5056186;28;20070;-65
2022/01/19 10:19:21;;;;;;;0.75;0.20;;;;;;;;;;5055082;28;20392;-65
2022/01/19 10:22:05;;;;;;;0.28;0.25;;;;;;;;;;5055760;28;20030;-66
2022/01/19 10:24:36;;;;;;;0.40;0.20;;;;;;;;;;5055471;28;20368;-65
2022/01/19 10:27:21;;;;;;;1.33;0.30;;;;;;;;;;5055436;28;20021;-65
2022/01/19 10:29:47;;;;;;;0.32;0.30;;;;;;;;;;5054566;28;20342;-65
2022/01/19 10:32:13;;;;;;;0.45;0.20;;;;;;;;;;5055271;28;20063;-65
2022/01/19 10:34:38;;;;;;;0.30;0.30;;;;;;;;;;5055474;28;20048;-65
2022/01/19 10:37:05;;;;;;;0.95;0.38;;;;;;;;;;5055209;28;20028;-65
2022/01/19 10:39:40;;;;;;;0.50;0.25;;;;;;;;;;5055078;28;20013;-66
2022/01/19 10:42:16;;;;;;;0.43;0.30;;;;;;;;;;5055111;28;20021;-66
2022/01/19 10:44:41;;;;;;;0.80;0.40;;;;;;;;;;5055182;28;20033;-65
2022/01/19 10:47:07;;;;;;;1.23;0.40;;;;;;;;;;5053641;28;20025;-65
2022/01/19 10:49:53;;;;;;;0.38;0.28;;;;;;;;;;5055028;28;20254;-65
2022/01/19 10:52:28;;;;;;;0.85;0.35;;;;;;;;;;5054504;28;20495;-66
2022/01/19 10:54:54;;;;;;;0.38;0.20;;;;;;;;;;5055321;28;20025;-66
2022/01/19 10:57:19;;;;;;;0.63;0.25;;;;;;;;;;5054836;28;20108;-66
2022/01/19 10:59:44;;;;;;;0.63;0.40;;;;;;;;;;5055045;28;20074;-65
2022/01/19 11:02:12;;;;;;;0.40;0.20;;;;;;;;;;5054820;28;20025;-65
2022/01/19 11:04:38;;;;;;;0.20;0.20;;;;;;;;;;5054635;28;20285;-65
2022/01/19 11:07:08;;;;;;;0.43;0.32;;;;;;;;;;5053517;28;20349;-65
2022/01/19 11:09:35;;;;;;;0.65;0.20;;;;;;;;;;5054632;28;20021;-65
2022/01/19 11:12:06;;;;;;;0.28;0.28;;;;;;;;;;5054767;28;20017;-65
2022/01/19 11:14:31;;;;;;;1.25;0.47;;;;;;;;;;5054526;28;20495;-65
2022/01/19 11:16:57;;;;;;;0.68;0.40;;;;;;;;;;5054617;28;20029;-65
2022/01/19 11:19:22;;;;;;;0.68;0.40;;;;;;;;;;5054130;28;20247;-65
2022/01/19 11:21:50;;;;;;;0.70;0.30;;;;;;;;;;5054586;28;20055;-65
2022/01/19 11:24:29;;;;;;;0.28;0.20;;;;;;;;;;5052921;28;20111;-65
2022/01/19 11:26:55;;;;;;;0.30;0.20;;;;;;;;;;5053366;28;20464;-65
2022/01/19 11:29:22;;;;;;;0.30;0.22;;;;;;;;;;5054020;28;20096;-64
2022/01/19 11:31:49;;;;;;;0.98;0.22;;;;;;;;;;5054559;28;20053;-65
2022/01/19 11:34:14;;;;;;;0.25;0.20;;;;;;;;;;5054124;28;20427;-65
2022/01/19 11:36:42;;;;;;;0.50;0.20;;;;;;;;;;5054100;28;20099;-65
2022/01/19 11:39:11;;;;;;;0.20;0.20;;;;;;;;;;5054197;28;20028;-65
2022/01/19 11:41:45;;;;;;;0.50;0.22;;;;;;;;;;5054125;28;20075;-65
2022/01/19 11:44:15;;;;;;;0.77;0.25;;;;;;;;;;5033959;28;20026;-64
2022/01/19 11:46:43;;;;;;;0.20;0.10;;;;;;;;;;5034170;28;20022;-65
2022/01/19 11:49:10;;;;;;;0.20;0.20;;;;;;;;;;5033754;28;20022;-66
2022/01/19 11:51:37;;;;;;;1.23;0.20;;;;;;;;;;5034288;28;20452;-65
2022/01/19 11:54:10;;;;;;;0.35;0.30;;;;;;;;;;5033036;28;20420;-65
2022/01/19 11:56:54;;;;;;;0.30;0.20;;;;;;;;;;5034003;28;20025;-65
2022/01/19 11:59:21;;;;;;;0.30;0.30;;;;;;;;;;5033809;28;20029;-65
2022/01/19 12:01:46;;;;;;;0.30;0.22;;;;;;;;;;5033868;28;20022;-65
2022/01/19 12:04:12;;;;;;;0.73;0.25;;;;;;;;;;5033387;28;20022;-65
2022/01/19 12:06:38;;;;;;;0.20;0.20;;;;;;;;;;5033752;28;20021;-65
2022/01/19 12:09:04;;;;;;;0.50;0.45;;;;;;;;;;5033527;28;20276;-66
2022/01/19 12:11:31;;;;;;;0.63;0.20;;;;;;;;;;5038227;28;20013;-65
2022/01/19 12:14:10;;;;;;;0.52;0.30;;;;;;;;;;5050421;28;20043;-65
2022/01/19 12:19:07;;;;;;;0.20;0.20;;;;;;;;;;5054926;28;20025;-65
2022/01/19 12:21:43;;;;;;;0.30;0.20;;;;;;;;;;5053356;28;20035;-65
2022/01/19 12:24:16;;;;;;;0.65;0.40;;;;;;;;;;5053029;28;20265;-65
2022/01/19 12:27:08;;;;;;;0.38;0.35;;;;;;;;;;5051626;28;20415;-65
2022/01/19 12:29:33;;;;;;;0.75;0.50;;;;;;;;;;5010764;28;20101;-65
2022/01/19 12:32:00;;;;;;;0.65;0.40;;;;;;;;;;5010867;28;20476;-65
2022/01/19 12:34:26;;;;;;;0.45;0.22;;;;;;;;;;5001779;28;20042;-65
2022/01/19 12:36:51;;;;;;;0.30;0.13;;;;;;;;;;4991513;28;20026;-65
2022/01/19 12:39:26;;;;;;;0.37;0.10;;;;;;;;;;4990586;28;20844;-65
2022/01/19 12:41:51;;;;;;;;;;;;;;;;;;4991767;28;20286;-65
2022/01/19 12:44:36;;;;;;;0.32;0.20;;;;;;;;;;4990982;28;19909;-65
2022/01/19 12:47:21;;;;;;;0.28;0.20;;;;;;;;;;4990474;28;20389;-65
2022/01/19 12:49:46;;;;;;;0.50;0.20;;;;;;;;;;4989753;28;20014;-66
2022/01/19 12:52:14;;;;;;;1.23;0.28;;;;;;;;;;4991044;28;20076;-64
2022/01/19 12:54:39;;;;;;;0.40;0.20;;;;;;;;;;4991098;28;20038;-65
2022/01/19 12:57:05;;;;;;;0.77;0.20;;;;;;;;;;4990867;28;20093;-66
2022/01/19 12:59:32;;;;;;;0.45;0.40;;;;;;;;;;4990891;28;20513;-65
2022/01/19 13:01:59;;;;;;;0.60;0.38;;;;;;;;;;4991085;28;20022;-65
2022/01/19 13:04:28;;;;;;;0.40;0.20;;;;;;;;;;4990089;28;20046;-65
2022/01/19 13:06:55;;;;;;;0.10;0.10;;;;;;;;;;5023141;28;20041;-65
2022/01/19 13:09:31;;;;;;;0.47;0.40;;;;;;;;;;5051637;28;20017;-65
2022/01/19 13:11:56;;;;;;;0.75;0.43;;;;;;;;;;5050541;28;20032;-65
2022/01/19 13:14:23;;;;;;;0.75;0.30;;;;;;;;;;5048537;28;20017;-65
2022/01/19 13:16:51;;;;;;;0.60;0.38;;;;;;;;;;5050498;28;20021;-66
2022/01/19 13:19:18;;;;;;;0.57;0.20;;;;;;;;;;5049931;28;20051;-65
2022/01/19 13:21:45;;;;;;;0.45;0.32;;;;;;;;;;5054518;28;20384;-65
2022/01/19 13:24:16;;;;;;;0.65;0.30;;;;;;;;;;5053556;28;20025;-65
2022/01/19 13:26:50;;;;;;;0.45;0.30;;;;;;;;;;5058096;28;20475;-65
2022/01/19 13:29:19;;;;;;;1.08;0.30;;;;;;;;;;5055581;28;20108;-65
2022/01/19 13:31:55;;;;;;;0.38;0.20;;;;;;;;;;5056587;28;20096;-65
2022/01/19 13:34:21;;;;;;;0.60;0.30;;;;;;;;;;5049443;28;20041;-64
2022/01/19 13:36:51;;;;;;;0.25;0.25;;;;;;;;;;5052708;28;20032;-66
2022/01/19 13:39:19;;;;;;;1.38;0.22;;;;;;;;;;5051274;28;20144;-65
2022/01/19 13:41:44;;;;;;;0.28;0.20;;;;;;;;;;5053058;28;20108;-65
2022/01/19 13:44:11;;;;;;;0.90;0.30;;;;;;;;;;5063677;28;20516;-65
2022/01/19 13:46:39;;;;;;;0.35;0.25;;;;;;;;;;5063292;28;20021;-66
2022/01/19 13:49:05;;;;;;;0.60;0.52;;;;;;;;;;5051988;28;20032;-64
2022/01/19 13:51:32;;;;;;;0.57;0.22;;;;;;;;;;5050644;28;20017;-68
2022/01/19 13:54:00;;;;;;;0.25;0.20;;;;;;;;;;5051765;28;20017;-65
2022/01/19 13:56:29;;;;;;;0.45;0.30;;;;;;;;;;5054795;28;20168;-66
2022/01/19 13:59:06;;;;;;;0.60;0.25;;;;;;;;;;5051096;28;20021;-65
2022/01/19 14:01:33;;;;;;;1.55;0.40;;;;;;;;;;5050656;28;20025;-65
2022/01/19 14:04:04;;;;;;;0.50;0.30;;;;;;;;;;5049231;28;20503;-65
2022/01/19 14:06:37;;;;;;;0.70;0.50;;;;;;;;;;5049875;28;20044;-64
2022/01/19 14:09:02;;;;;;;0.63;0.32;;;;;;;;;;5045629;28;20473;-65
2022/01/19 14:11:27;;;;;;;0.73;0.37;;;;;;;;;;5050954;28;20032;-65
2022/01/19 14:13:56;;;;;;;2.10;0.50;;;;;;;;;;5051533;28;20269;-65
2022/01/19 14:16:23;;;;;;;0.80;0.40;;;;;;;;;;5051566;28;20254;-65
2022/01/19 14:19:23;;;;;;;1.17;0.40;;;;;;;;;;5051771;28;20032;-65
2022/01/19 14:21:56;;;;;;;1.70;0.50;;;;;;;;;;4990101;28;20019;-65
2022/01/19 14:24:22;;;;;;;0.55;0.40;;;;;;;;;;4988842;28;20063;-65
2022/01/19 14:26:58;;;;;;;1.27;0.40;;;;;;;;;;4990139;28;20503;-65
2022/01/19 14:29:24;;;;;;;0.45;0.45;;;;;;;;;;4989869;28;20434;-65
2022/01/19 14:31:59;;;;;;;0.73;0.28;;;;;;;;;;4989896;28;20022;-65
2022/01/19 14:34:33;;;;;;;0.85;0.50;;;;;;;;;;4989879;28;20027;-64
2022/01/19 14:37:07;;;;;;;1.15;0.50;;;;;;;;;;4989829;28;20026;-66
2022/01/19 14:39:43;;;;;;;0.38;0.30;;;;;;;;;;4989884;28;20026;-65
2022/01/19 14:42:08;;;;;;;0.55;0.30;;;;;;;;;;4989770;28;20563;-65
2022/01/19 14:44:40;;;;;;;0.50;0.30;;;;;;;;;;4989874;28;20034;-65
2022/01/19 14:47:14;;;;;;;0.60;0.40;;;;;;;;;;4984465;28;20204;-65
2022/01/19 14:49:40;;;;;;;0.98;0.30;;;;;;;;;;4973373;28;20517;-65
2022/01/19 14:52:05;;;;;;;0.52;0.30;;;;;;;;;;4981855;28;20026;-65
2022/01/19 14:54:30;;;;;;;1.00;0.68;;;;;;;;;;4993341;28;20466;-65
2022/01/19 14:56:56;;;;;;;0.90;0.32;;;;;;;;;;5033860;28;20044;-65
2022/01/19 14:59:22;;;;;;;0.57;0.43;;;;;;;;;;5033666;28;20429;-65
2022/01/19 15:01:50;;;;;;;0.35;0.30;;;;;;;;;;5035029;28;20514;-65
2022/01/19 15:04:15;;;;;;;0.40;0.38;;;;;;;;;;5050645;28;20090;-64
2022/01/19 15:06:40;;;;;;;0.20;0.20;;;;;;;;;;5074880;28;20459;-66
2022/01/19 15:09:06;;;;;;;1.25;0.40;;;;;;;;;;5074493;28;20012;-65
2022/01/19 15:11:32;;;;;;;0.47;0.40;;;;;;;;;;5074517;28;20472;-64
2022/01/19 15:13:57;;;;;;;1.10;0.40;;;;;;;;;;5074797;28;20329;-64
2022/01/19 15:16:23;;;;;;;0.30;0.20;;;;;;;;;;5074588;28;20056;-65
2022/01/19 15:18:48;;;;;;;0.60;0.38;;;;;;;;;;5074633;28;20078;-65
2022/01/19 15:21:13;;;;;;;0.47;0.45;;;;;;;;;;5074165;28;20439;-65
2022/01/19 15:23:38;;;;;;;0.57;0.57;;;;;;;;;;5074361;28;20020;-66
2022/01/19 15:26:04;;;;;;;0.70;0.27;;;;;;;;;;5073145;28;20474;-65
2022/01/19 15:28:29;;;;;;;0.80;0.60;;;;;;;;;;5074344;28;20021;-64
2022/01/19 15:30:55;;;;;;;0.88;0.40;;;;;;;;;;5074355;28;20024;-65
2022/01/19 15:33:20;;;;;;;1.25;0.30;;;;;;;;;;5072707;28;20052;-65
2022/01/19 15:35:47;;;;;;;1.17;0.30;;;;;;;;;;5068030;28;20024;-65
2022/01/19 15:38:12;;;;;;;0.30;0.15;;;;;;;;;;5054094;28;20016;-65
2022/01/19 15:40:39;;;;;;;0.38;0.30;;;;;;;;;;5061187;28;20369;-65
2022/01/19 15:43:07;;;;;;;1.35;0.40;;;;;;;;;;5062913;28;20045;-64
2022/01/19 15:45:35;;;;;;;0.75;0.47;;;;;;;;;;5054450;28;20025;-65
2022/01/19 15:48:01;;;;;;;0.30;0.30;;;;;;;;;;5054059;28;20474;-65
2022/01/19 15:50:27;;;;;;;0.55;0.28;;;;;;;;;;5053917;28;20037;-64
2022/01/19 15:52:52;;;;;;;0.95;0.38;;;;;;;;;;5054330;28;20017;-65
2022/01/19 15:55:18;;;;;;;0.40;0.20;;;;;;;;;;5053494;28;20025;-64
2022/01/19 15:57:43;;;;;;;0.60;0.30;;;;;;;;;;5053915;28;20025;-64
2022/01/19 16:00:09;;;;;;;0.63;0.30;;;;;;;;;;5051921;28;20274;-64
2022/01/19 16:02:35;;;;;;;0.63;0.32;;;;;;;;;;5050543;28;20336;-65